createdAt,value
2019-04-01T00:00:06.727Z,62.41
2019-04-01T00:00:48.924Z,62.42
2019-04-01T00:01:27.668Z,62.47
2019-04-01T00:02:05.161Z,62.49
2019-04-01T00:02:41.048Z,62.54
2019-04-01T00:03:16.501Z,62.44
2019-04-01T00:03:52.403Z,62.44
2019-04-01T00:04:27.881Z,62.26
2019-04-01T00:05:03.648Z,62.12
2019-04-01T00:05:39.080Z,62.29
2019-04-01T00:06:14.513Z,62.29
2019-04-01T00:06:50.388Z,61.89
2019-04-01T00:07:26.356Z,61.85
2019-04-01T00:08:01.771Z,61.85
2019-04-01T00:08:37.519Z,61.78
2019-04-01T00:09:12.950Z,61.41
2019-04-01T00:09:48.399Z,61.32
2019-04-01T00:10:23.815Z,61.32
2019-04-01T00:10:59.247Z,61.62
2019-04-01T00:11:34.994Z,61.48
2019-04-01T00:12:10.844Z,61.47
2019-04-01T00:12:46.270Z,61.41
2019-04-01T00:13:22.107Z,61.47
2019-04-01T00:13:57.513Z,60.98
2019-04-01T00:14:32.961Z,60.98
2019-04-01T00:15:08.529Z,61.58
2019-04-01T00:15:44.063Z,61.58
2019-04-01T00:16:19.593Z,61.41
2019-04-01T00:16:55.032Z,61.41
2019-04-01T00:17:30.479Z,61.67
2019-04-01T00:18:06.260Z,61.52
2019-04-01T00:18:41.696Z,61.28
2019-04-01T00:19:17.171Z,61.28
2019-04-01T00:19:52.605Z,61.59
2019-04-01T00:20:28.093Z,61.43
2019-04-01T00:21:03.853Z,61.30
2019-04-01T00:21:39.410Z,61.37
2019-04-01T00:22:14.843Z,61.31
2019-04-01T00:22:50.486Z,61.45
2019-04-01T00:23:26.139Z,61.52
2019-04-01T00:24:01.608Z,61.59
2019-04-01T00:24:37.145Z,61.67
2019-04-01T00:25:12.605Z,61.63
2019-04-01T00:25:48.037Z,61.73
2019-04-01T00:26:23.461Z,61.73
2019-04-01T00:26:59.223Z,61.46
2019-04-01T00:27:34.740Z,61.53
2019-04-01T00:28:10.180Z,61.40
2019-04-01T00:28:45.623Z,61.40
2019-04-01T00:29:21.040Z,61.07
2019-04-01T00:29:56.463Z,61.07
2019-04-01T00:30:31.920Z,61.50
2019-04-01T00:31:07.325Z,61.61
2019-04-01T00:31:42.764Z,61.65
2019-04-01T00:32:18.300Z,61.59
2019-04-01T00:32:53.716Z,61.66
2019-04-01T00:33:29.227Z,61.70
2019-04-01T00:34:05.062Z,61.73
2019-04-01T00:34:40.520Z,61.79
2019-04-01T00:35:16.014Z,61.70
2019-04-01T00:35:51.437Z,61.74
2019-04-01T00:36:27.198Z,61.94
2019-04-01T00:37:02.969Z,61.94
2019-04-01T00:37:38.395Z,61.93
2019-04-01T00:38:14.129Z,61.95
2019-04-01T00:38:49.608Z,62.13
2019-04-01T00:39:25.023Z,62.15
2019-04-01T00:40:00.901Z,62.32
2019-04-01T00:40:36.687Z,62.52
2019-04-01T00:41:12.227Z,62.46
2019-04-01T00:42:00.800Z,62.53
2019-04-01T00:42:43.832Z,62.55
2019-04-01T00:43:38.231Z,62.81
2019-04-01T00:44:13.687Z,62.82
2019-04-01T00:44:49.115Z,62.87
2019-04-01T00:45:24.703Z,62.91
2019-04-01T00:46:00.158Z,62.90
2019-04-01T00:46:35.566Z,62.91
2019-04-01T00:47:11.001Z,62.96
2019-04-01T00:47:46.433Z,63.13
2019-04-01T00:48:21.954Z,63.14
2019-04-01T00:48:57.398Z,63.12
2019-04-01T00:49:32.797Z,63.16
2019-04-01T00:50:08.217Z,63.30
2019-04-01T00:50:43.979Z,63.38
2019-04-01T00:51:19.590Z,63.38
2019-04-01T00:51:56.377Z,63.50
2019-04-01T00:52:31.792Z,63.57
2019-04-01T00:53:07.203Z,63.54
2019-04-01T00:53:42.716Z,63.61
2019-04-01T00:54:18.396Z,63.58
2019-04-01T00:54:53.819Z,63.60
2019-04-01T00:55:29.365Z,63.56
2019-04-01T00:56:05.206Z,63.60
2019-04-01T00:56:40.732Z,63.63
2019-04-01T00:57:16.207Z,63.69
2019-04-01T00:57:52.027Z,63.84
2019-04-01T00:58:30.373Z,63.79
2019-04-01T00:59:04.565Z,63.58
2019-04-01T00:59:40.022Z,63.73
2019-04-01T01:00:16.141Z,63.68
2019-04-01T01:00:51.681Z,63.69
2019-04-01T01:01:27.529Z,63.74
2019-04-01T01:02:02.945Z,63.88
2019-04-01T01:02:38.784Z,64.02
2019-04-01T01:03:14.587Z,64.04
2019-04-01T01:03:50.009Z,64.08
2019-04-01T01:04:25.438Z,64.18
2019-04-01T01:05:01.217Z,64.18
2019-04-01T01:05:36.811Z,64.17
2019-04-01T01:06:12.387Z,64.21
2019-04-01T01:06:47.825Z,64.26
2019-04-01T01:07:23.248Z,64.16
2019-04-01T01:07:58.697Z,64.16
2019-04-01T01:08:34.111Z,64.60
2019-04-01T01:09:09.546Z,64.56
2019-04-01T01:09:44.976Z,64.65
2019-04-01T01:10:20.403Z,64.70
2019-04-01T01:10:55.847Z,64.51
2019-04-01T01:11:31.580Z,64.47
2019-04-01T01:12:07.000Z,64.42
2019-04-01T01:12:42.645Z,64.42
2019-04-01T01:13:18.061Z,64.78
2019-04-01T01:13:53.835Z,64.68
2019-04-01T01:14:29.364Z,64.75
2019-04-01T01:15:05.586Z,64.52
2019-04-01T01:15:41.026Z,64.57
2019-04-01T01:16:16.504Z,64.66
2019-04-01T01:16:51.931Z,64.70
2019-04-01T01:17:27.368Z,64.76
2019-04-01T01:18:03.110Z,64.88
2019-04-01T01:18:38.539Z,64.91
2019-04-01T01:19:13.970Z,65.00
2019-04-01T01:19:49.395Z,65.13
2019-04-01T01:20:25.136Z,65.15
2019-04-01T01:21:00.575Z,65.19
2019-04-01T01:21:36.881Z,65.09
2019-04-01T01:22:12.471Z,65.09
2019-04-01T01:22:47.930Z,65.25
2019-04-01T01:23:23.455Z,65.31
2019-04-01T01:23:59.297Z,65.50
2019-04-01T01:24:35.062Z,65.41
2019-04-01T01:25:10.847Z,65.41
2019-04-01T01:25:46.303Z,64.93
2019-04-01T01:26:21.754Z,65.51
2019-04-01T01:26:57.687Z,65.25
2019-04-01T01:27:33.138Z,65.25
2019-04-01T01:28:08.675Z,65.98
2019-04-01T01:28:44.117Z,65.98
2019-04-01T01:29:19.633Z,65.62
2019-04-01T01:29:55.351Z,65.49
2019-04-01T01:30:30.794Z,65.49
2019-04-01T01:31:06.224Z,65.55
2019-04-01T01:31:41.715Z,65.57
2019-04-01T01:32:17.451Z,65.68
2019-04-01T01:32:52.904Z,65.41
2019-04-01T01:33:28.310Z,65.88
2019-04-01T01:34:03.731Z,65.88
2019-04-01T01:34:39.442Z,65.73
2019-04-01T01:35:14.917Z,65.77
2019-04-01T01:35:50.617Z,65.74
2019-04-01T01:36:26.351Z,65.74
2019-04-01T01:37:01.770Z,65.91
2019-04-01T01:37:37.193Z,65.10
2019-04-01T01:38:13.012Z,65.57
2019-04-01T01:38:48.875Z,65.57
2019-04-01T01:39:24.667Z,65.44
2019-04-01T01:40:00.397Z,65.63
2019-04-01T01:40:36.086Z,65.54
2019-04-01T01:41:11.976Z,65.54
2019-04-01T01:41:47.444Z,65.54
2019-04-01T01:42:22.954Z,65.34
2019-04-01T01:42:58.723Z,65.34
2019-04-01T01:43:34.146Z,65.59
2019-04-01T01:44:09.591Z,65.37
2019-04-01T01:44:45.054Z,65.96
2019-04-01T01:45:20.459Z,65.96
2019-04-01T01:45:55.898Z,65.76
2019-04-01T01:46:31.374Z,65.85
2019-04-01T01:47:06.796Z,65.85
2019-04-01T01:47:42.273Z,65.71
2019-04-01T01:48:18.307Z,65.88
2019-04-01T01:48:54.045Z,65.77
2019-04-01T01:49:30.009Z,65.77
2019-04-01T01:50:05.994Z,65.91
2019-04-01T01:50:41.449Z,65.99
2019-04-01T01:51:16.929Z,65.99
2019-04-01T01:51:52.650Z,65.77
2019-04-01T01:52:28.069Z,65.93
2019-04-01T01:53:03.487Z,66.08
2019-04-01T01:53:41.635Z,66.01
2019-04-01T01:54:16.441Z,66.01
2019-04-01T01:54:51.958Z,65.92
2019-04-01T01:56:01.313Z,65.80
2019-04-01T01:56:37.051Z,65.81
2019-04-01T01:57:12.494Z,65.89
2019-04-01T01:57:47.914Z,65.89
2019-04-01T01:58:23.324Z,65.79
2019-04-01T01:58:58.737Z,65.71
2019-04-01T01:59:34.163Z,65.71
2019-04-01T02:00:10.162Z,65.57
2019-04-01T02:00:45.602Z,65.60
2019-04-01T02:01:21.006Z,65.60
2019-04-01T02:01:56.505Z,65.76
2019-04-01T02:02:31.947Z,65.76
2019-04-01T02:03:08.053Z,65.92
2019-04-01T02:03:43.501Z,65.85
2019-04-01T02:04:18.922Z,65.85
2019-04-01T02:04:54.349Z,66.01
2019-04-01T02:05:30.103Z,66.01
2019-04-01T02:06:05.509Z,65.95
2019-04-01T02:06:41.263Z,65.98
2019-04-01T02:07:17.406Z,66.16
2019-04-01T02:07:53.272Z,65.98
2019-04-01T02:08:28.688Z,66.01
2019-04-01T02:09:05.436Z,65.78
2019-04-01T02:09:40.875Z,65.78
2019-04-01T02:10:16.305Z,65.94
2019-04-01T02:10:51.707Z,65.94
2019-04-01T02:11:27.137Z,65.88
2019-04-01T02:12:02.801Z,65.88
2019-04-01T02:12:38.294Z,65.70
2019-04-01T02:13:13.715Z,66.02
2019-04-01T02:13:49.121Z,66.02
2019-04-01T02:14:24.552Z,66.15
2019-04-01T02:15:00.386Z,66.20
2019-04-01T02:15:36.608Z,66.20
2019-04-01T02:16:12.046Z,66.28
2019-04-01T02:16:47.470Z,66.11
2019-04-01T02:17:22.921Z,66.03
2019-04-01T02:17:58.466Z,66.32
2019-04-01T02:18:33.879Z,66.32
2019-04-01T02:19:09.303Z,66.36
2019-04-01T02:19:44.727Z,66.36
2019-04-01T02:20:20.162Z,66.27
2019-04-01T02:20:55.588Z,66.67
2019-04-01T02:21:31.029Z,66.67
2019-04-01T02:22:06.467Z,66.56
2019-04-01T02:22:41.899Z,66.56
2019-04-01T02:23:17.333Z,66.79
2019-04-01T02:23:52.824Z,66.45
2019-04-01T02:24:28.242Z,66.45
2019-04-01T02:25:03.859Z,66.54
2019-04-01T02:25:39.388Z,66.60
2019-04-01T02:26:14.819Z,66.08
2019-04-01T02:26:50.268Z,66.39
2019-04-01T02:27:25.698Z,66.55
2019-04-01T02:28:01.209Z,66.55
2019-04-01T02:28:36.727Z,66.44
2019-04-01T02:29:12.177Z,66.28
2019-04-01T02:29:47.611Z,66.31
2019-04-01T02:30:23.045Z,66.31
2019-04-01T02:30:58.445Z,66.39
2019-04-01T02:31:34.512Z,66.39
2019-04-01T02:32:09.980Z,66.41
2019-04-01T02:32:45.544Z,66.14
2019-04-01T02:33:20.955Z,66.14
2019-04-01T02:33:56.388Z,66.57
2019-04-01T02:34:31.805Z,66.57
2019-04-01T02:35:07.417Z,66.26
2019-04-01T02:35:42.854Z,66.26
2019-04-01T02:36:18.578Z,66.35
2019-04-01T02:36:54.072Z,66.62
2019-04-01T02:37:29.855Z,66.62
2019-04-01T02:38:05.264Z,66.68
2019-04-01T02:38:40.701Z,66.68
2019-04-01T02:39:16.179Z,66.56
2019-04-01T02:39:51.581Z,66.42
2019-04-01T02:40:27.097Z,66.46
2019-04-01T02:41:02.959Z,66.39
2019-04-01T02:41:38.719Z,66.36
2019-04-01T02:42:14.629Z,66.43
2019-04-01T02:42:50.089Z,66.43
2019-04-01T02:43:25.618Z,66.50
2019-04-01T02:44:01.028Z,66.36
2019-04-01T02:44:36.918Z,66.38
2019-04-01T02:45:12.459Z,66.38
2019-04-01T02:45:47.858Z,66.38
2019-04-01T02:46:23.303Z,66.52
2019-04-01T02:46:58.707Z,66.52
2019-04-01T02:47:34.165Z,66.41
2019-04-01T02:48:09.605Z,66.41
2019-04-01T02:48:45.063Z,66.39
2019-04-01T02:49:20.468Z,66.34
2019-04-01T02:49:56.236Z,66.34
2019-04-01T02:50:31.673Z,66.45
2019-04-01T02:51:07.091Z,66.46
2019-04-01T02:51:42.857Z,66.45
2019-04-01T02:52:18.279Z,66.29
2019-04-01T02:52:53.714Z,66.30
2019-04-01T02:53:29.436Z,66.42
2019-04-01T02:54:04.858Z,66.48
2019-04-01T02:54:40.309Z,66.52
2019-04-01T02:55:16.289Z,66.58
2019-04-01T02:55:51.717Z,66.58
2019-04-01T02:56:27.142Z,66.61
2019-04-01T02:57:02.580Z,66.66
2019-04-01T02:57:38.024Z,66.77
2019-04-01T02:58:13.609Z,66.82
2019-04-01T02:58:49.136Z,66.94
2019-04-01T02:59:24.591Z,66.94
2019-04-01T03:00:00.033Z,66.64
2019-04-01T03:00:35.450Z,66.64
2019-04-01T03:01:10.887Z,66.71
2019-04-01T03:01:46.417Z,66.82
2019-04-01T03:02:21.842Z,66.95
2019-04-01T03:02:57.304Z,66.95
2019-04-01T03:03:32.725Z,66.79
2019-04-01T03:04:09.066Z,66.98
2019-04-01T03:04:44.843Z,66.98
2019-04-01T03:05:20.277Z,67.10
2019-04-01T03:05:55.693Z,67.10
2019-04-01T03:06:31.112Z,67.09
2019-04-01T03:07:06.878Z,67.38
2019-04-01T03:07:42.322Z,67.38
2019-04-01T03:08:18.222Z,67.31
2019-04-01T03:08:54.029Z,67.24
2019-04-01T03:09:29.529Z,67.55
2019-04-01T03:10:05.138Z,67.55
2019-04-01T03:10:40.616Z,67.63
2019-04-01T03:11:16.035Z,67.63
2019-04-01T03:11:51.456Z,67.71
2019-04-01T03:12:26.860Z,67.71
2019-04-01T03:13:02.406Z,67.63
2019-04-01T03:13:37.825Z,67.66
2019-04-01T03:14:13.366Z,67.68
2019-04-01T03:14:48.791Z,67.49
2019-04-01T03:15:24.206Z,67.27
2019-04-01T03:15:59.731Z,67.15
2019-04-01T03:16:35.251Z,67.29
2019-04-01T03:17:10.994Z,67.32
2019-04-01T03:17:46.826Z,67.37
2019-04-01T03:18:22.307Z,67.43
2019-04-01T03:18:57.813Z,67.30
2019-04-01T03:19:33.577Z,67.20
2019-04-01T03:20:09.202Z,67.23
2019-04-01T03:20:44.692Z,67.23
2019-04-01T03:21:20.624Z,67.37
2019-04-01T03:21:56.403Z,67.47
2019-04-01T03:22:31.927Z,67.53
2019-04-01T03:23:07.361Z,67.56
2019-04-01T03:23:42.829Z,67.60
2019-04-01T03:24:18.246Z,67.55
2019-04-01T03:24:53.680Z,67.50
2019-04-01T03:25:29.401Z,67.38
2019-04-01T03:26:04.831Z,67.38
2019-04-01T03:26:40.377Z,67.32
2019-04-01T03:27:17.431Z,67.39
2019-04-01T03:27:52.951Z,67.40
2019-04-01T03:28:28.398Z,67.29
2019-04-01T03:29:03.839Z,67.27
2019-04-01T03:29:39.273Z,67.25
2019-04-01T03:30:14.792Z,67.34
2019-04-01T03:30:50.216Z,67.29
2019-04-01T03:31:26.009Z,67.30
2019-04-01T03:32:01.547Z,67.25
2019-04-01T03:32:44.209Z,67.23
2019-04-01T03:33:14.163Z,67.22
2019-04-01T03:33:49.586Z,67.33
2019-04-01T03:34:25.519Z,67.26
2019-04-01T03:35:01.629Z,67.26
2019-04-01T03:35:37.617Z,67.43
2019-04-01T03:36:13.361Z,67.43
2019-04-01T03:36:48.791Z,67.80
2019-04-01T03:37:24.218Z,67.50
2019-04-01T03:37:59.634Z,67.50
2019-04-01T03:38:35.456Z,67.56
2019-04-01T03:39:10.881Z,67.44
2019-04-01T03:39:46.569Z,67.47
2019-04-01T03:40:22.733Z,67.53
2019-04-01T03:40:58.481Z,67.42
2019-04-01T03:41:33.893Z,67.40
2019-04-01T03:42:09.333Z,67.24
2019-04-01T03:42:44.765Z,67.24
2019-04-01T03:43:20.213Z,67.32
2019-04-01T03:43:55.974Z,67.20
2019-04-01T03:44:31.400Z,67.24
2019-04-01T03:45:07.683Z,67.27
2019-04-01T03:45:43.123Z,67.35
2019-04-01T03:46:18.829Z,67.37
2019-04-01T03:46:54.247Z,67.29
2019-04-01T03:47:30.382Z,67.38
2019-04-01T03:48:05.790Z,67.32
2019-04-01T03:48:41.279Z,67.29
2019-04-01T03:49:16.704Z,67.29
2019-04-01T03:49:52.112Z,67.40
2019-04-01T03:50:27.859Z,67.31
2019-04-01T03:51:03.624Z,67.31
2019-04-01T03:51:39.086Z,67.26
2019-04-01T03:52:14.517Z,67.21
2019-04-01T03:52:49.937Z,66.96
2019-04-01T03:53:25.381Z,66.96
2019-04-01T03:54:00.803Z,67.00
2019-04-01T03:54:36.516Z,66.86
2019-04-01T03:55:12.300Z,66.96
2019-04-01T03:55:47.721Z,66.81
2019-04-01T03:56:23.142Z,66.84
2019-04-01T03:56:58.552Z,66.87
2019-04-01T03:57:33.968Z,66.80
2019-04-01T03:58:09.749Z,66.85
2019-04-01T03:58:45.214Z,66.82
2019-04-01T03:59:20.789Z,66.62
2019-04-01T03:59:56.546Z,66.62
2019-04-01T04:00:31.963Z,66.85
2019-04-01T04:01:07.483Z,66.84
2019-04-01T04:01:42.881Z,66.86
2019-04-01T04:02:18.380Z,66.96
2019-04-01T04:02:53.793Z,67.04
2019-04-01T04:03:29.549Z,67.03
2019-04-01T04:04:05.299Z,67.05
2019-04-01T04:04:40.716Z,66.86
2019-04-01T04:05:16.146Z,66.86
2019-04-01T04:05:51.570Z,67.06
2019-04-01T04:06:27.082Z,67.16
2019-04-01T04:07:02.517Z,67.23
2019-04-01T04:07:38.032Z,67.16
2019-04-01T04:08:13.865Z,66.79
2019-04-01T04:08:49.641Z,66.79
2019-04-01T04:09:25.054Z,66.84
2019-04-01T04:10:00.536Z,66.90
2019-04-01T04:10:35.899Z,66.96
2019-04-01T04:11:11.360Z,66.87
2019-04-01T04:11:46.785Z,66.87
2019-04-01T04:12:22.202Z,66.98
2019-04-01T04:12:57.814Z,66.98
2019-04-01T04:13:33.569Z,66.81
2019-04-01T04:14:09.057Z,66.64
2019-04-01T04:14:44.965Z,66.64
2019-04-01T04:15:20.383Z,66.66
2019-04-01T04:15:56.096Z,66.65
2019-04-01T04:16:31.480Z,66.51
2019-04-01T04:17:06.894Z,66.64
2019-04-01T04:17:42.795Z,66.67
2019-04-01T04:18:18.688Z,66.65
2019-04-01T04:18:54.216Z,66.83
2019-04-01T04:19:29.738Z,66.83
2019-04-01T04:20:06.365Z,66.80
2019-04-01T04:20:41.843Z,66.85
2019-04-01T04:21:17.321Z,66.56
2019-04-01T04:21:52.774Z,66.41
2019-04-01T04:22:28.568Z,66.52
2019-04-01T04:23:03.985Z,66.61
2019-04-01T04:23:39.408Z,66.74
2019-04-01T04:24:14.908Z,66.76
2019-04-01T04:24:50.366Z,66.76
2019-04-01T04:25:25.779Z,66.82
2019-04-01T04:26:01.245Z,66.92
2019-04-01T04:26:36.716Z,66.80
2019-04-01T04:27:12.169Z,66.77
2019-04-01T04:27:47.629Z,66.99
2019-04-01T04:28:23.140Z,66.99
2019-04-01T04:28:58.613Z,66.95
2019-04-01T04:29:34.405Z,66.81
2019-04-01T04:30:10.665Z,66.81
2019-04-01T04:30:46.474Z,66.71
2019-04-01T04:31:21.905Z,66.71
2019-04-01T04:31:58.790Z,66.60
2019-04-01T04:32:34.205Z,66.67
2019-04-01T04:33:10.259Z,66.93
2019-04-01T04:33:45.827Z,66.93
2019-04-01T04:34:21.301Z,66.92
2019-04-01T04:34:57.532Z,66.97
2019-04-01T04:35:33.110Z,66.90
2019-04-01T04:36:08.569Z,66.82
2019-04-01T04:36:44.021Z,66.72
2019-04-01T04:37:19.527Z,66.73
2019-04-01T04:37:54.927Z,66.74
2019-04-01T04:38:30.349Z,66.73
2019-04-01T04:39:07.142Z,66.68
2019-04-01T04:39:42.609Z,66.68
2019-04-01T04:40:18.008Z,66.59
2019-04-01T04:40:53.697Z,66.82
2019-04-01T04:41:29.504Z,66.62
2019-04-01T04:42:04.932Z,66.62
2019-04-01T04:42:40.402Z,66.61
2019-04-01T04:43:15.817Z,66.77
2019-04-01T04:43:51.245Z,66.90
2019-04-01T04:44:26.681Z,66.92
2019-04-01T04:45:02.170Z,66.70
2019-04-01T04:45:37.584Z,66.68
2019-04-01T04:46:13.277Z,66.67
2019-04-01T04:46:48.707Z,66.67
2019-04-01T04:47:24.487Z,66.76
2019-04-01T04:47:59.901Z,66.79
2019-04-01T04:48:35.317Z,66.58
2019-04-01T04:49:10.763Z,66.57
2019-04-01T04:49:46.519Z,66.52
2019-04-01T04:50:21.946Z,66.52
2019-04-01T04:50:57.775Z,66.77
2019-04-01T04:51:33.193Z,66.67
2019-04-01T04:52:08.615Z,66.53
2019-04-01T04:52:44.061Z,66.47
2019-04-01T04:53:19.917Z,66.47
2019-04-01T04:53:56.303Z,66.25
2019-04-01T04:54:32.153Z,66.35
2019-04-01T04:55:07.785Z,66.60
2019-04-01T04:55:43.209Z,66.49
2019-04-01T04:56:18.742Z,66.45
2019-04-01T04:56:54.170Z,66.50
2019-04-01T04:57:30.038Z,66.49
2019-04-01T04:58:05.774Z,66.44
2019-04-01T04:58:41.283Z,66.66
2019-04-01T04:59:16.754Z,66.66
2019-04-01T04:59:52.202Z,66.67
2019-04-01T05:00:27.975Z,66.61
2019-04-01T05:01:03.424Z,66.68
2019-04-01T05:01:39.028Z,66.77
2019-04-01T05:02:14.474Z,66.65
2019-04-01T05:02:49.905Z,66.57
2019-04-01T05:03:25.441Z,66.71
2019-04-01T05:04:01.231Z,66.77
2019-04-01T05:04:36.819Z,66.79
2019-04-01T05:05:12.583Z,66.78
2019-04-01T05:05:48.444Z,66.45
2019-04-01T05:06:23.853Z,66.60
2019-04-01T05:06:59.289Z,66.60
2019-04-01T05:07:34.711Z,66.64
2019-04-01T05:08:10.494Z,66.72
2019-04-01T05:08:45.930Z,66.73
2019-04-01T05:09:21.370Z,66.70
2019-04-01T05:09:57.172Z,66.61
2019-04-01T05:10:32.628Z,66.62
2019-04-01T05:11:08.050Z,66.62
2019-04-01T05:11:43.591Z,66.60
2019-04-01T05:12:19.017Z,66.55
2019-04-01T05:12:54.428Z,66.55
2019-04-01T05:13:30.217Z,66.43
2019-04-01T05:14:05.652Z,66.46
2019-04-01T05:14:41.194Z,66.42
2019-04-01T05:15:16.627Z,66.45
2019-04-01T05:15:52.543Z,66.50
2019-04-01T05:16:27.957Z,66.49
2019-04-01T05:17:03.386Z,66.37
2019-04-01T05:17:38.817Z,66.45
2019-04-01T05:18:14.632Z,66.47
2019-04-01T05:18:50.066Z,66.40
2019-04-01T05:19:26.474Z,66.25
2019-04-01T05:20:01.911Z,66.21
2019-04-01T05:20:39.188Z,66.23
2019-04-01T05:21:17.448Z,66.25
2019-04-01T05:21:54.507Z,66.22
2019-04-01T05:22:30.426Z,66.22
2019-04-01T05:23:06.232Z,66.21
2019-04-01T05:23:42.285Z,66.24
2019-04-01T05:24:17.977Z,66.25
2019-04-01T05:24:53.830Z,66.17
2019-04-01T05:25:31.960Z,66.17
2019-04-01T05:26:08.723Z,66.17
2019-04-01T05:26:45.678Z,66.15
2019-04-01T05:27:24.642Z,66.18
2019-04-01T05:28:02.212Z,66.04
2019-04-01T05:28:40.831Z,66.10
2019-04-01T05:29:17.953Z,66.04
2019-04-01T05:29:55.144Z,66.19
2019-04-01T05:30:33.968Z,66.08
2019-04-01T05:31:14.490Z,66.13
2019-04-01T05:31:52.748Z,66.13
2019-04-01T05:32:28.570Z,66.19
2019-04-01T05:33:04.910Z,66.16
2019-04-01T05:33:54.842Z,66.10
2019-04-01T05:34:22.616Z,66.10
2019-04-01T05:35:01.016Z,66.11
2019-04-01T05:35:37.143Z,66.07
2019-04-01T05:36:14.210Z,66.10
2019-04-01T05:36:49.727Z,65.94
2019-04-01T05:37:25.148Z,65.93
2019-04-01T05:38:01.361Z,65.99
2019-04-01T05:38:36.870Z,65.92
2019-04-01T05:39:12.733Z,65.71
2019-04-01T05:39:48.243Z,65.85
2019-04-01T05:40:23.679Z,65.76
2019-04-01T05:40:59.098Z,65.75
2019-04-01T05:41:35.185Z,65.92
2019-04-01T05:42:10.702Z,65.86
2019-04-01T05:42:46.559Z,65.67
2019-04-01T05:43:21.975Z,65.64
2019-04-01T05:43:57.400Z,65.54
2019-04-01T05:44:32.816Z,65.68
2019-04-01T05:45:08.686Z,65.54
2019-04-01T05:45:44.132Z,65.47
2019-04-01T05:46:19.957Z,65.58
2019-04-01T05:46:55.769Z,65.60
2019-04-01T05:47:36.089Z,65.27
2019-04-01T05:48:13.635Z,65.32
2019-04-01T05:48:49.255Z,65.35
2019-04-01T05:49:24.950Z,65.33
2019-04-01T05:50:00.692Z,65.25
2019-04-01T05:50:36.325Z,65.21
2019-04-01T05:51:12.278Z,64.78
2019-04-01T05:51:47.698Z,64.78
2019-04-01T05:52:23.108Z,64.64
2019-04-01T05:52:58.638Z,64.60
2019-04-01T05:53:34.473Z,64.55
2019-04-01T05:54:10.011Z,64.45
2019-04-01T05:54:45.464Z,64.51
2019-04-01T05:55:20.901Z,64.58
2019-04-01T05:55:56.624Z,64.61
2019-04-01T05:56:32.144Z,64.61
2019-04-01T05:57:07.566Z,64.59
2019-04-01T05:57:43.113Z,64.50
2019-04-01T05:58:18.525Z,64.55
2019-04-01T05:58:54.046Z,64.55
2019-04-01T05:59:29.488Z,64.46
2019-04-01T06:00:05.653Z,64.31
2019-04-01T06:00:53.639Z,64.23
2019-04-01T06:01:34.224Z,64.23
2019-04-01T06:02:10.306Z,64.37
2019-04-01T06:02:45.875Z,64.42
2019-04-01T06:03:21.998Z,64.43
2019-04-01T06:03:57.506Z,64.33
2019-04-01T06:04:33.039Z,64.16
2019-04-01T06:05:09.493Z,64.06
2019-04-01T06:05:45.268Z,63.99
2019-04-01T06:06:20.791Z,63.97
2019-04-01T06:06:56.220Z,63.96
2019-04-01T06:07:32.403Z,63.82
2019-04-01T06:08:09.152Z,63.87
2019-04-01T06:08:45.055Z,63.94
2019-04-01T06:09:20.475Z,63.66
2019-04-01T06:09:56.031Z,63.75
2019-04-01T06:10:31.784Z,63.75
2019-04-01T06:11:07.285Z,63.80
2019-04-01T06:11:43.218Z,63.81
2019-04-01T06:12:18.853Z,63.92
2019-04-01T06:12:54.420Z,63.98
2019-04-01T06:13:29.841Z,63.78
2019-04-01T06:14:05.485Z,63.63
2019-04-01T06:14:40.924Z,63.48
2019-04-01T06:15:16.473Z,63.36
2019-04-01T06:15:51.926Z,63.30
2019-04-01T06:16:28.412Z,63.26
2019-04-01T06:17:03.774Z,63.29
2019-04-01T06:17:39.300Z,63.29
2019-04-01T06:18:15.431Z,63.29
2019-04-01T06:18:50.919Z,63.29
2019-04-01T06:19:26.572Z,63.29
2019-04-01T06:20:01.985Z,63.29
2019-04-01T06:20:37.448Z,63.38
2019-04-01T06:21:14.112Z,63.22
2019-04-01T06:21:50.144Z,63.19
2019-04-01T06:22:25.695Z,63.23
2019-04-01T06:23:01.155Z,63.00
2019-04-01T06:23:36.862Z,62.74
2019-04-01T06:24:12.316Z,62.65
2019-04-01T06:24:48.855Z,62.55
2019-04-01T06:25:24.276Z,62.45
2019-04-01T06:26:00.592Z,62.45
2019-04-01T06:26:36.007Z,62.32
2019-04-01T06:27:12.039Z,62.37
2019-04-01T06:27:47.894Z,62.48
2019-04-01T06:28:23.750Z,62.32
2019-04-01T06:28:59.173Z,62.00
2019-04-01T06:29:34.879Z,62.21
2019-04-01T06:30:10.357Z,62.30
2019-04-01T06:30:45.915Z,62.19
2019-04-01T06:31:21.404Z,61.88
2019-04-01T06:32:00.030Z,62.15
2019-04-01T06:32:35.564Z,62.13
2019-04-01T06:33:11.435Z,62.29
2019-04-01T06:33:46.970Z,62.36
2019-04-01T06:34:22.443Z,62.16
2019-04-01T06:34:58.516Z,62.08
2019-04-01T06:35:34.135Z,62.03
2019-04-01T06:36:09.903Z,62.11
2019-04-01T06:36:45.754Z,62.12
2019-04-01T06:37:21.203Z,61.74
2019-04-01T06:37:56.654Z,61.50
2019-04-01T06:38:32.077Z,61.68
2019-04-01T06:39:07.931Z,61.73
2019-04-01T06:39:43.427Z,61.67
2019-04-01T06:40:19.080Z,61.67
2019-04-01T06:40:54.910Z,61.07
2019-04-01T06:41:30.408Z,61.07
2019-04-01T06:42:07.308Z,61.35
2019-04-01T06:42:42.867Z,61.54
2019-04-01T06:43:18.304Z,61.59
2019-04-01T06:43:53.730Z,61.43
2019-04-01T06:44:29.183Z,61.43
2019-04-01T06:45:05.159Z,61.12
2019-04-01T06:45:40.608Z,60.79
2019-04-01T06:46:16.075Z,60.79
2019-04-01T06:46:52.307Z,60.87
2019-04-01T06:47:27.748Z,60.76
2019-04-01T06:48:03.177Z,61.01
2019-04-01T06:48:38.607Z,61.01
2019-04-01T06:49:14.038Z,60.31
2019-04-01T06:49:49.892Z,60.72
2019-04-01T06:50:25.307Z,60.72
2019-04-01T06:51:00.904Z,60.52
2019-04-01T06:51:36.430Z,60.18
2019-04-01T06:52:11.895Z,60.18
2019-04-01T06:52:47.319Z,60.28
2019-04-01T06:53:22.755Z,60.35
2019-04-01T06:53:58.285Z,60.02
2019-04-01T06:54:33.905Z,60.08
2019-04-01T06:55:09.345Z,60.08
2019-04-01T06:55:44.799Z,59.50
2019-04-01T06:56:20.612Z,59.66
2019-04-01T06:56:56.060Z,59.98
2019-04-01T06:57:31.474Z,59.78
2019-04-01T06:58:07.381Z,59.78
2019-04-01T06:58:43.975Z,59.91
2019-04-01T06:59:19.404Z,59.91
2019-04-01T06:59:55.168Z,59.51
2019-04-01T07:00:30.619Z,59.09
2019-04-01T07:01:06.395Z,59.09
2019-04-01T07:01:42.000Z,59.39
2019-04-01T07:02:17.890Z,59.39
2019-04-01T07:02:53.537Z,59.36
2019-04-01T07:03:29.789Z,59.11
2019-04-01T07:04:05.220Z,58.70
2019-04-01T07:04:41.017Z,58.70
2019-04-01T07:05:16.645Z,58.96
2019-04-01T07:05:53.042Z,58.96
2019-04-01T07:06:28.486Z,58.75
2019-04-01T07:07:17.835Z,58.48
2019-04-01T07:07:41.615Z,58.18
2019-04-01T07:08:17.134Z,57.92
2019-04-01T07:08:52.851Z,57.92
2019-04-01T07:09:28.498Z,58.28
2019-04-01T07:10:04.139Z,58.28
2019-04-01T07:10:39.898Z,58.12
2019-04-01T07:11:15.349Z,57.82
2019-04-01T07:11:50.769Z,57.82
2019-04-01T07:12:26.612Z,57.81
2019-04-01T07:13:02.123Z,58.10
2019-04-01T07:13:40.030Z,58.10
2019-04-01T07:14:15.197Z,57.92
2019-04-01T07:14:50.836Z,57.51
2019-04-01T07:15:26.266Z,57.51
2019-04-01T07:16:14.762Z,57.74
2019-04-01T07:16:40.162Z,57.68
2019-04-01T07:17:15.999Z,57.56
2019-04-01T07:17:51.853Z,57.56
2019-04-01T07:18:27.913Z,57.20
2019-04-01T07:19:04.045Z,57.36
2019-04-01T07:19:39.530Z,57.36
2019-04-01T07:20:15.252Z,57.06
2019-04-01T07:20:50.679Z,57.15
2019-04-01T07:21:26.131Z,56.39
2019-04-01T07:22:02.170Z,56.39
2019-04-01T07:22:38.003Z,56.82
2019-04-01T07:23:13.847Z,56.87
2019-04-01T07:23:49.564Z,56.71
2019-04-01T07:24:24.989Z,56.71
2019-04-01T07:25:00.803Z,56.37
2019-04-01T07:25:36.532Z,56.37
2019-04-01T07:26:12.064Z,56.51
2019-04-01T07:26:47.559Z,56.50
2019-04-01T07:27:23.394Z,56.48
2019-04-01T07:27:58.826Z,56.30
2019-04-01T07:28:34.587Z,56.25
2019-04-01T07:29:10.016Z,56.14
2019-04-01T07:29:46.119Z,55.85
2019-04-01T07:30:21.737Z,55.85
2019-04-01T07:30:57.168Z,56.06
2019-04-01T07:31:32.632Z,55.67
2019-04-01T07:32:08.059Z,55.78
2019-04-01T07:32:43.503Z,55.78
2019-04-01T07:33:19.265Z,55.71
2019-04-01T07:33:55.319Z,55.64
2019-04-01T07:34:30.756Z,55.41
2019-04-01T07:35:06.401Z,55.41
2019-04-01T07:35:41.959Z,54.88
2019-04-01T07:36:17.383Z,54.93
2019-04-01T07:36:52.943Z,54.85
2019-04-01T07:37:28.770Z,54.77
2019-04-01T07:38:04.396Z,54.68
2019-04-01T07:38:40.192Z,54.54
2019-04-01T07:39:16.004Z,54.43
2019-04-01T07:39:51.438Z,54.47
2019-04-01T07:40:27.146Z,54.31
2019-04-01T07:41:02.634Z,54.31